Data for 04/02/2016

Time Sea-Level Adjusted Pressure Absolute Pressure Temperature Relative Humidity Dew Point   
(mb) (inHg) (mb) (inHg) (C) (F) (%) (C) (F)
00:05 1023 30.21 852 25.16 5 41.1 59 -2.4 27.7
00:10 1023 30.21 852 25.16 4.9 40.8 59 -2.5 27.4
00:15 1022 30.18 852 25.16 5 41 59 -2.4 27.6
00:20 1022 30.18 852 25.16 4.9 40.7 60 -2.3 27.8
00:25 1022 30.18 852 25.16 4.7 40.4 60 -2.4 27.7
00:30 1022 30.18 852 25.16 4.8 40.7 59 -2.6 27.4
00:35 1022 30.18 852 25.16 4.9 40.8 58 -2.6 27.3
00:40 1022 30.18 852 25.16 4.9 40.8 57 -2.8 27
00:45 1023 30.21 852 25.16 5.1 41.1 56 -2.9 26.8
00:50 1023 30.21 852 25.16 5.5 41.8 56 -2.7 27.2
00:55 1022 30.18 852 25.16 5.4 41.7 56 -2.7 27.1
01:00 1022 30.18 852 25.16 5.2 41.4 57 -2.6 27.4
01:05 1022 30.18 852 25.16 5 41 58 -2.6 27.2
01:10 1022 30.18 852 25.16 4.9 40.8 58 -2.6 27.3
01:15 1022 30.18 852 25.16 4.8 40.7 59 -2.6 27.3
01:20 1022 30.18 852 25.16 4.7 40.5 59 -2.6 27.2
01:25 1022 30.18 852 25.16 4.9 40.9 58 -2.7 27.2
01:30 1022 30.18 852 25.16 4.9 40.9 58 -2.6 27.4
01:35 1022 30.18 852 25.16 4.7 40.5 59 -2.7 27.2
01:40 1022 30.18 852 25.16 4.7 40.5 58 -2.8 27
01:45 1022 30.18 852 25.16 4.7 40.4 59 -2.7 27.1
01:50 1022 30.18 851 25.13 4.8 40.6 58 -2.9 26.8
01:55 1022 30.18 851 25.13 4.9 40.8 59 -2.5 27.4
02:00 1022 30.18 851 25.13 4.6 40.4 59 -2.6 27.2
02:05 1022 30.18 851 25.13 4.6 40.3 59 -2.6 27.3
02:10 1022 30.18 851 25.13 4.6 40.2 58 -2.9 26.7
02:15 1022 30.18 851 25.13 4.7 40.5 59 -2.7 27.2
02:20 1022 30.18 851 25.13 4.8 40.6 57 -3 26.6
02:25 1022 30.18 851 25.13 5 40.9 57 -2.9 26.7
02:30 1022 30.18 851 25.13 5.2 41.3 56 -2.9 26.9
02:35 1022 30.18 851 25.13 5.1 41.1 58 -2.6 27.3
02:40 1022 30.18 851 25.13 4.7 40.5 59 -2.6 27.3
02:45 1022 30.18 851 25.13 4.6 40.4 59 -2.7 27.2
02:50 1022 30.18 851 25.13 4.5 40.2 60 -2.5 27.6
02:55 1022 30.18 851 25.13 4.4 39.9 61 -2.5 27.6
03:00 1022 30.18 851 25.13 4.4 39.8 60 -2.6 27.3
03:05 1022 30.18 851 25.13 4 39.1 64 -2.3 27.9
03:10 1022 30.18 851 25.13 3.7 38.6 64 -2.6 27.4
03:15 1022 30.18 851 25.13 3.8 38.9 63 -2.6 27.4
03:20 1022 30.18 851 25.13 3.6 38.6 63 -2.6 27.2
03:25 1022 30.18 851 25.13 3.7 38.7 63 -2.7 27.1
03:30 1022 30.18 851 25.13 3.9 39.1 63 -2.6 27.4
03:35 1022 30.18 851 25.13 4.1 39.3 62 -2.5 27.5
03:40 1022 30.18 851 25.13 3.5 38.2 65 -2.4 27.7
03:45 1022 30.18 851 25.13 3.1 37.6 67 -2.5 27.4
03:50 1022 30.18 851 25.13 3.2 37.8 66 -2.5 27.5
03:55 1022 30.18 851 25.13 3.2 37.7 67 -2.3 27.8
04:00 1022 30.18 851 25.13 2.7 36.9 69 -2.4 27.6
04:05 1022 30.18 851 25.13 2.8 37 67 -2.7 27.2
04:10 1022 30.18 851 25.13 3 37.5 67 -2.4 27.6
04:15 1022 30.18 851 25.13 2.7 36.9 69 -2.4 27.7
04:20 1022 30.18 851 25.13 2.8 37.1 67 -2.7 27.1
04:25 1022 30.18 851 25.13 2.9 37.3 67 -2.5 27.5
04:30 1022 30.18 851 25.13 2.7 36.8 69 -2.5 27.4
04:35 1022 30.18 851 25.13 2.7 36.9 68 -2.7 27.2
04:40 1022 30.18 851 25.13 3 37.5 68 -2.3 27.8
04:45 1022 30.18 851 25.13 2.9 37.2 68 -2.5 27.5
04:50 1022 30.18 851 25.13 2.8 37.1 68 -2.4 27.6
04:55 1022 30.18 851 25.13 2.6 36.7 70 -2.4 27.7
05:00 1022 30.18 851 25.13 2.5 36.4 70 -2.4 27.6
05:05 1022 30.18 851 25.13 2.2 36 71 -2.5 27.5
05:10 1022 30.18 851 25.13 2.1 35.8 71 -2.6 27.3
05:15 1022 30.18 851 25.13 2.2 35.9 69 -3 26.6
05:20 1022 30.18 851 25.13 2.4 36.3 67 -3 26.5
05:25 1022 30.18 851 25.13 2.9 37.2 66 -2.9 26.7
05:30 1022 30.18 851 25.13 3.2 37.8 65 -2.8 26.9
05:35 1022 30.18 851 25.13 3.5 38.2 63 -2.8 26.9
05:40 1022 30.18 851 25.13 3.4 38.1 64 -2.8 26.9
05:45 1021 30.15 851 25.13 3.1 37.6 66 -2.7 27.2
05:50 1021 30.15 851 25.13 2.5 36.4 68 -2.9 26.8
05:55 1022 30.18 851 25.13 2.3 36.2 70 -2.7 27.2
06:00 1022 30.18 851 25.13 1.7 35 70 -3.2 26.2
06:05 1021 30.15 851 25.13 2.1 35.8 68 -3.2 26.2
06:10 1022 30.18 851 25.13 2.4 36.4 66 -3.2 26.2
06:15 1022 30.18 851 25.13 2.6 36.7 66 -3 26.6
06:20 1022 30.18 851 25.13 2.5 36.5 67 -3.1 26.5
06:25 1022 30.18 851 25.13 2.7 36.9 65 -3.1 26.4
06:30 1022 30.18 851 25.13 3.2 37.8 64 -3 26.5
06:35 1022 30.18 851 25.13 3.6 38.4 63 -2.8 27
06:40 1022 30.18 851 25.13 3.5 38.4 63 -2.9 26.8
06:45 1022 30.18 851 25.13 3.3 38 64 -2.7 27.1
06:50 1021 30.15 851 25.13 3.4 38.2 63 -2.9 26.8
06:55 1022 30.18 851 25.13 3.7 38.7 62 -2.9 26.7
07:00 1022 30.18 851 25.13 3.7 38.6 63 -2.6 27.3
07:05 1022 30.18 851 25.13 3.9 39 61 -2.9 26.8
07:10 1022 30.18 851 25.13 3.9 39.1 62 -2.8 27
07:15 1022 30.18 851 25.13 4.5 40.1 59 -2.7 27.1
07:20 1022 30.18 851 25.13 4.8 40.7 58 -2.8 27
07:25 1022 30.18 851 25.13 4.8 40.7 60 -2.3 27.9
07:30 1022 30.18 851 25.13 4.7 40.4 60 -2.3 27.8
07:35 1022 30.18 851 25.13 4.9 40.9 61 -2 28.4
07:40 1022 30.18 851 25.13 5.7 42.2 59 -1.7 28.9
07:45 1022 30.18 851 25.13 5.9 42.6 59 -1.5 29.2
07:50 1022 30.18 851 25.13 6.5 43.7 55 -1.8 28.7
07:55 1021 30.15 851 25.13 7.2 44.9 51 -2.2 28.1
08:00 1021 30.15 851 25.13 7.6 45.7 49 -2.4 27.7
08:05 1021 30.15 851 25.13 8.1 46.6 48 -2.3 27.9
08:10 1021 30.15 851 25.13 8.9 48.1 45 -2.3 27.8
08:15 1021 30.15 851 25.13 9.1 48.3 45 -2.1 28.2
08:20 1021 30.15 851 25.13 9.5 49.1 44 -2 28.5
08:25 1021 30.15 851 25.13 10.1 50.3 43 -1.8 28.7
08:30 1021 30.15 851 25.13 10.6 51 42 -1.8 28.8
08:35 1021 30.15 851 25.13 10.3 50.5 43 -1.7 29
08:40 1021 30.15 851 25.13 10.2 50.4 43 -1.7 29
08:45 1021 30.15 850 25.1 10.4 50.7 41 -2.4 27.7
08:50 1021 30.15 850 25.1 11.2 52.2 38 -2.4 27.6
08:55 1021 30.15 850 25.1 11.7 53 37 -2.3 27.8
09:00 1021 30.15 850 25.1 11.8 53.2 37 -2.5 27.4
09:05 1021 30.15 850 25.1 12.1 53.8 35 -3 26.5
09:10 1021 30.15 850 25.1 12.2 53.9 34 -3.1 26.5
09:15 1021 30.15 850 25.1 12.1 53.9 36 -2.5 27.4
09:20 1021 30.15 850 25.1 12.3 54.1 34 -3 26.5
09:25 1021 30.15 850 25.1 12.5 54.6 35 -2.6 27.4
09:30 1021 30.15 850 25.1 11.6 52.9 37 -2.7 27.2
09:35 1021 30.15 850 25.1 12.3 54.2 34 -3 26.6
09:40 1021 30.15 850 25.1 12.8 55.1 34 -2.7 27.2
09:45 1021 30.15 850 25.1 12.6 54.7 35 -2.5 27.5
09:50 1021 30.15 850 25.1 12.8 55.1 33 -3 26.6
09:55 1021 30.15 850 25.1 13.2 55.8 33 -2.7 27.2
10:00 1021 30.15 850 25.1 13.4 56.1 33 -2.4 27.7
10:05 1021 30.15 850 25.1 13.5 56.3 32 -2.6 27.3
10:10 1021 30.15 850 25.1 12.8 55 35 -2.2 28.1
10:15 1021 30.15 850 25.1 12.9 55.2 32 -3.2 26.2
10:20 1021 30.15 850 25.1 13.4 56.1 32 -3 26.7
10:25 1021 30.15 850 25.1 14.2 57.6 30 -2.8 26.9
10:30 1021 30.15 850 25.1 14.3 57.7 31 -2.6 27.3
10:35 1021 30.15 850 25.1 14.7 58.5 29 -3.2 26.3
10:40 1020 30.12 850 25.1 14.9 58.8 30 -2.4 27.6
10:45 1020 30.12 850 25.1 14.8 58.7 29 -3.1 26.3
10:50 1020 30.12 849 25.07 15.5 60 28 -3 26.6
10:55 1020 30.12 849 25.07 16 60.8 26 -3.6 25.5
11:00 1020 30.12 849 25.07 15.9 60.7 27 -2.9 26.8
11:05 1020 30.12 849 25.07 15.7 60.3 28 -2.8 26.9
11:10 1020 30.12 849 25.07 15.5 59.9 28 -2.7 27.1
11:15 1020 30.12 849 25.07 15.8 60.5 28 -2.8 27
11:20 1020 30.12 849 25.07 16.4 61.5 27 -2.6 27.3
11:25 1020 30.12 849 25.07 16.5 61.7 26 -2.9 26.8
11:30 1020 30.12 849 25.07 16.6 62 26 -2.9 26.8
11:35 1020 30.12 849 25.07 16.6 61.9 24 -3.8 25.2
11:40 1020 30.12 849 25.07 16.9 62.4 23 -4 24.7
11:45 1019 30.09 849 25.07 16.8 62.3 24 -3.9 25.1
11:50 1019 30.09 849 25.07 17.6 63.7 22 -4.1 24.7
11:55 1019 30.09 848 25.04 17.7 63.9 21 -4.6 23.8
12:00 1019 30.09 848 25.04 17.4 63.3 18 -7.1 19.2
12:05 1019 30.09 848 25.04 17.3 63.2 17 -7.7 18.2
12:10 1019 30.09 848 25.04 17.4 63.4 17 -7.5 18.6
12:15 1019 30.09 848 25.04 17 62.5 17 -8 17.6
12:20 1019 30.09 848 25.04 17 62.6 18 -7.5 18.5
12:25 1019 30.09 848 25.04 17.1 62.8 17 -7.8 17.9
12:30 1019 30.09 848 25.04 17 62.7 19 -6.6 20.2
12:35 1019 30.09 848 25.04 16.9 62.4 20 -6.3 20.6
12:40 1019 30.09 848 25.04 16.9 62.5 18 -7.6 18.2
12:45 1019 30.09 848 25.04 17.5 63.6 19 -6.5 20.2
12:50 1019 30.09 848 25.04 17.9 64.3 17 -7.5 18.5
12:55 1019 30.09 848 25.04 17.7 63.8 17 -7.8 17.9
13:00 1018 30.06 848 25.04 17.6 63.6 17 -8.1 17.5
13:05 1018 30.06 848 25.04 17.5 63.5 17 -7.5 18.5
13:10 1018 30.06 848 25.04 17.5 63.5 16 -8.5 16.7
13:15 1018 30.06 847 25.01 17.4 63.4 17 -8.1 17.4
13:20 1018 30.06 847 25.01 17.4 63.3 17 -7.6 18.3
13:25 1018 30.06 847 25.01 17.5 63.5 17 -7.6 18.4
13:30 1018 30.06 847 25.01 17.7 63.9 17 -7.2 19
13:35 1018 30.06 847 25.01 17.9 64.3 16 -8 17.6
13:40 1018 30.06 847 25.01 18.3 65 15 -8.3 17
13:45 1018 30.06 847 25.01 17.9 64.2 15 -8.7 16.3
13:50 1018 30.06 847 25.01 18 64.4 15 -8.7 16.4
13:55 1018 30.06 847 25.01 17.8 64 16 -8 17.7
14:00 1018 30.06 847 25.01 18.2 64.7 16 -8.1 17.4
14:05 1018 30.06 847 25.01 18 64.4 15 -8.6 16.6
14:10 1018 30.06 847 25.01 18 64.4 16 -8.5 16.7
14:15 1018 30.06 847 25.01 18.4 65.1 15 -9 15.8
14:20 1018 30.06 847 25.01 18.8 65.8 14 -9 15.7
14:25 1017 30.03 847 25.01 18.3 65 15 -9.1 15.6
14:30 1017 30.03 847 25.01 18.6 65.4 15 -8.6 16.5
14:35 1017 30.03 847 25.01 18.9 66 15 -8.5 16.6
14:40 1017 30.03 847 25.01 18.8 65.9 14 -8.8 16.1
14:45 1017 30.03 847 25.01 18.2 64.8 15 -9.1 15.6
14:50 1017 30.03 847 25.01 18.4 65.1 14 -9.3 15.3
14:55 1017 30.03 846 24.98 18.7 65.7 14 -9.3 15.2
15:00 1017 30.03 846 24.98 18.6 65.5 15 -8.8 16.2
15:05 1017 30.03 846 24.98 18.7 65.6 15 -8.6 16.6
15:10 1017 30.03 846 24.98 18.8 65.8 14 -9 15.9
15:15 1017 30.03 846 24.98 18.9 66 15 -8.4 16.8
15:20 1017 30.03 846 24.98 18.6 65.5 15 -8.8 16.1
15:25 1017 30.03 846 24.98 18.9 66 15 -8.4 16.9
15:30 1017 30.03 846 24.98 18.9 66 15 -8.6 16.5
15:35 1017 30.03 846 24.98 18.8 65.8 14 -8.8 16.1
15:40 1017 30.03 846 24.98 18.7 65.6 15 -8.8 16.2
15:45 1017 30.03 846 24.98 18.4 65.1 15 -8.6 16.6
15:50 1017 30.03 846 24.98 18.6 65.5 14 -8.9 16
15:55 1017 30.03 846 24.98 18.5 65.3 14 -9 15.8
16:00 1017 30.03 846 24.98 18.7 65.6 15 -8.3 17
16:05 1017 30.03 846 24.98 18.7 65.7 14 -9 15.9
16:10 1017 30.03 846 24.98 18.9 66.1 15 -8 17.6
16:15 1017 30.03 846 24.98 18.7 65.6 16 -7.9 17.7
16:20 1016 30 846 24.98 18.6 65.5 16 -7.6 18.4
16:25 1016 30 846 24.98 18.5 65.3 16 -7.9 17.8
16:30 1016 30 846 24.98 18.1 64.7 17 -7.3 18.9
16:35 1016 30 845 24.95 18.4 65 15 -8.2 17.2
16:40 1016 30 845 24.95 18.2 64.7 17 -6.9 19.6
16:45 1016 30 845 24.95 18.2 64.7 16 -7.6 18.3
16:50 1016 30 845 24.95 18 64.4 17 -7.5 18.4
16:55 1016 30 845 24.95 18.1 64.6 17 -7.2 19
17:00 1016 30 845 24.95 18 64.4 17 -7.7 18.2
17:05 1016 30 845 24.95 18 64.3 17 -7.6 18.3
17:10 1016 30 845 24.95 18 64.4 17 -7.1 19.3
17:15 1016 30 845 24.95 18.1 64.5 18 -6.8 19.8
17:20 1016 30 845 24.95 17.7 63.9 17 -7.4 18.7
17:25 1016 30 845 24.95 17.6 63.7 18 -7.1 19.2
17:30 1016 30 845 24.95 17.6 63.6 18 -6.6 20.1
17:35 1016 30 845 24.95 17.5 63.6 18 -6.9 19.6
17:40 1016 30 845 24.95 17.5 63.5 18 -6.8 19.8
17:45 1016 30 845 24.95 17.4 63.2 19 -6.5 20.3
17:50 1016 30 845 24.95 17.3 63.1 19 -6.5 20.2
17:55 1016 30 845 24.95 17.1 62.7 19 -6.4 20.5
18:00 1016 30 845 24.95 16.9 62.4 20 -6.4 20.5
18:05 1016 30 845 24.95 16.8 62.2 20 -6.4 20.4
18:10 1016 30 845 24.95 16.5 61.7 20 -6.4 20.5
18:15 1016 30 845 24.95 16.4 61.5 21 -6 21.1
18:20 1016 30 845 24.95 16.2 61.2 21 -5.9 21.3
18:25 1016 30 845 24.95 16.1 61 22 -5.7 21.8
18:30 1016 30 845 24.95 16 60.7 22 -5.6 21.9
18:35 1016 30 845 24.95 15.7 60.2 23 -5.4 22.3
18:40 1016 30 845 24.95 15.5 59.8 23 -5.5 22.1
18:45 1016 30 845 24.95 15.2 59.3 24 -5.2 22.6
18:50 1016 30 845 24.95 14.8 58.7 25 -5 23
18:55 1016 30 845 24.95 14.6 58.2 25 -5.1 22.7
19:00 1016 30 845 24.95 14.2 57.6 25 -5.3 22.5
19:05 1016 30 845 24.95 14.1 57.4 25 -5.4 22.3
19:10 1016 30 845 24.95 14.1 57.3 25 -5.5 22.1
19:15 1016 30 846 24.98 13.9 57.1 26 -5.3 22.5
19:20 1016 30 846 24.98 13.8 56.9 26 -5.3 22.4
19:25 1016 30 846 24.98 13.6 56.5 26 -5.4 22.3
19:30 1017 30.03 846 24.98 13.4 56.2 27 -5.2 22.7
19:35 1017 30.03 846 24.98 13 55.4 28 -4.9 23.2
19:40 1017 30.03 846 24.98 12.6 54.6 29 -5 22.9
19:45 1017 30.03 846 24.98 12.4 54.3 29 -5 23
19:50 1017 30.03 846 24.98 12.4 54.4 29 -5.3 22.5
19:55 1017 30.03 846 24.98 12.5 54.5 29 -5.1 22.8
20:00 1017 30.03 846 24.98 12.4 54.4 29 -5.2 22.7
20:05 1017 30.03 846 24.98 12.3 54.1 30 -4.9 23.1
20:10 1017 30.03 846 24.98 12 53.6 31 -4.8 23.4
20:15 1017 30.03 846 24.98 11.7 53.1 31 -4.8 23.3
20:20 1017 30.03 846 24.98 11.6 52.8 32 -4.7 23.5
20:25 1017 30.03 846 24.98 11.3 52.4 32 -4.8 23.3
20:30 1017 30.03 846 24.98 11.4 52.4 31 -5 23
20:35 1017 30.03 846 24.98 11.4 52.6 31 -4.9 23.1
20:40 1017 30.03 846 24.98 11.5 52.7 31 -5.2 22.6
20:45 1017 30.03 846 24.98 11.6 52.8 31 -4.9 23.2
20:50 1017 30.03 846 24.98 11.2 52.2 32 -4.6 23.7
20:55 1017 30.03 846 24.98 10.8 51.5 34 -4.5 23.8
21:00 1017 30.03 846 24.98 10.5 50.8 34 -4.8 23.4
21:05 1017 30.03 846 24.98 10.3 50.6 34 -4.7 23.5
21:10 1017 30.03 846 24.98 10.3 50.5 35 -4.7 23.6
21:15 1017 30.03 846 24.98 10.2 50.3 35 -4.6 23.7
21:20 1017 30.03 846 24.98 10 50 35 -4.5 23.8
21:25 1017 30.03 846 24.98 10.2 50.3 35 -4.7 23.5
21:30 1017 30.03 846 24.98 10.1 50.1 35 -4.6 23.8
21:35 1017 30.03 846 24.98 10 50 35 -4.6 23.6
21:40 1017 30.03 846 24.98 10.1 50.1 35 -4.8 23.4
21:45 1017 30.03 846 24.98 10.2 50.3 34 -5 23
21:50 1017 30.03 846 24.98 10.3 50.5 34 -4.9 23.2
21:55 1017 30.03 846 24.98 10.2 50.4 34 -4.9 23.2
22:00 1017 30.03 846 24.98 10.2 50.3 35 -4.7 23.5
22:05 1017 30.03 846 24.98 10.1 50.2 35 -4.5 23.9
22:10 1017 30.03 846 24.98 9.9 49.9 35 -4.7 23.6
22:15 1017 30.03 846 24.98 10 50 35 -4.8 23.4
22:20 1017 30.03 846 24.98 9.9 49.9 37 -4.2 24.4
22:25 1017 30.03 846 24.98 9.6 49.2 37 -4.3 24.3
22:30 1017 30.03 846 24.98 9.3 48.8 37 -4.6 23.7
22:35 1017 30.03 846 24.98 9.3 48.8 40 -3.6 25.5
22:40 1017 30.03 846 24.98 9.1 48.4 39 -4.3 24.3
22:45 1017 30.03 846 24.98 9.1 48.3 37 -4.7 23.5
22:50 1017 30.03 846 24.98 9.3 48.8 36 -5 23
22:55 1017 30.03 846 24.98 9.6 49.4 34 -5.6 22
23:00 1017 30.03 846 24.98 10 50.1 33 -5.3 22.4
23:05 1017 30.03 846 24.98 10 50 33 -5.3 22.4
23:10 1017 30.03 846 24.98 10 50 33 -5.6 21.9
23:15 1017 30.03 846 24.98 10.2 50.3 33 -5.3 22.4
23:20 1017 30.03 846 24.98 10.1 50.2 33 -5.6 22
23:25 1017 30.03 847 25.01 10.2 50.4 33 -5.4 22.4
23:30 1017 30.03 847 25.01 10 50.1 34 -4.9 23.1
23:35 1017 30.03 847 25.01 9.7 49.4 37 -4.4 24.1
23:40 1017 30.03 847 25.01 9.4 48.9 36 -4.8 23.4
23:45 1017 30.03 847 25.01 9.3 48.7 36 -5.1 22.8
23:50 1017 30.03 847 25.01 9.4 48.9 36 -4.9 23.2
23:55 1017 30.03 847 25.01 9.4 48.9 36 -4.9 23.2
24:00 1017 30.03 847 25.01 9.4 48.8 36 -4.8 23.3